EWG62K LIPE-EDDL
Flight info
| Callsign | EWG62K |
|---|---|
| Flight time | N/A |
| Altitude | 32000 |
| Route | LUMAV DCT KOPER DCT VIC DCT SUMIR DCT UNIMI DCT MOGTI DCT KPT L608 TEDGODCT HAREM DCT LOHRE Z850 ADEMI T854 DOMUX |
| Aircraft | A320/M-SDE2E3FGIRWXY/HB1 |
Departure
| Time | 2026-05-01 14:02 |
|---|---|
| Airport | Bologna Guglielmo Marconi Airport (LIPE) |
Arrival
| Time | N/A |
|---|---|
| Airport | Düsseldorf Airport (EDDL) |
| Time | Latitude | Longitude | Altitude | Speed | Heading |
|---|---|---|---|---|---|
| 2026-05-01 13:47 | 44.53053 | 11.29204 | 129 ft | 0 kts | 116° |
| 2026-05-01 13:53 | 44.53056 | 11.29196 | 129 ft | 2 kts | 116° |
| 2026-05-01 13:53 | 44.53062 | 11.29177 | 129 ft | 2 kts | 116° |
| 2026-05-01 13:54 | 44.53069 | 11.29159 | 129 ft | 2 kts | 117° |
| 2026-05-01 13:54 | 44.53073 | 11.29138 | 129 ft | 2 kts | 82° |
| 2026-05-01 13:54 | 44.53068 | 11.29118 | 129 ft | 2 kts | 55° |
| 2026-05-01 13:54 | 44.53057 | 11.29104 | 129 ft | 2 kts | 27° |
| 2026-05-01 13:55 | 44.53044 | 11.29096 | 129 ft | 1 kts | 27° |
| 2026-05-01 13:55 | 44.53040 | 11.29092 | 130 ft | 0 kts | 26° |
| 2026-05-01 13:57 | 44.53051 | 11.29100 | 129 ft | 4 kts | 26° |
| 2026-05-01 13:57 | 44.53080 | 11.29121 | 129 ft | 8 kts | 27° |
| 2026-05-01 13:57 | 44.53169 | 11.29185 | 127 ft | 12 kts | 27° |
| 2026-05-01 13:57 | 44.53233 | 11.29185 | 126 ft | 9 kts | 308° |
| 2026-05-01 13:58 | 44.53256 | 11.29123 | 125 ft | 12 kts | 295° |
| 2026-05-01 13:58 | 44.53323 | 11.28937 | 124 ft | 19 kts | 296° |
| 2026-05-01 13:58 | 44.53392 | 11.28744 | 122 ft | 24 kts | 297° |
| 2026-05-01 13:58 | 44.53476 | 11.28511 | 118 ft | 29 kts | 296° |
| 2026-05-01 13:59 | 44.53566 | 11.28258 | 117 ft | 28 kts | 297° |
| 2026-05-01 13:59 | 44.53653 | 11.28016 | 117 ft | 27 kts | 296° |
| 2026-05-01 13:59 | 44.53736 | 11.27786 | 121 ft | 25 kts | 297° |
| 2026-05-01 13:59 | 44.53813 | 11.27573 | 121 ft | 24 kts | 296° |
| 2026-05-01 14:00 | 44.53884 | 11.27379 | 123 ft | 16 kts | 301° |
| 2026-05-01 14:00 | 44.53972 | 11.27276 | 124 ft | 16 kts | 327° |
| 2026-05-01 14:00 | 44.54031 | 11.27224 | 124 ft | 11 kts | 332° |
| 2026-05-01 14:00 | 44.54102 | 11.27282 | 124 ft | 11 kts | 87° |
| 2026-05-01 14:01 | 44.54074 | 11.27396 | 123 ft | 18 kts | 116° |
| 2026-05-01 14:01 | 44.53901 | 11.27875 | 120 ft | 89 kts | 117° |
| 2026-05-01 14:01 | 44.53529 | 11.28908 | 120 ft | 147 kts | 116° |
| 2026-05-01 14:01 | 44.53019 | 11.30341 | 408 ft | 170 kts | 115° |
| 2026-05-01 14:02 | 44.52578 | 11.31834 | 1037 ft | 169 kts | 94° |
| 2026-05-01 14:02 | 44.52961 | 11.33308 | 1706 ft | 167 kts | 41° |
| 2026-05-01 14:02 | 44.53980 | 11.34008 | 2305 ft | 167 kts | 22° |
| 2026-05-01 14:02 | 44.55065 | 11.34562 | 2840 ft | 168 kts | 23° |
| 2026-05-01 14:03 | 44.55785 | 11.34978 | 3199 ft | 169 kts | 26° |
| 2026-05-01 14:03 | 44.57246 | 11.35960 | 3722 ft | 184 kts | 29° |
| 2026-05-01 14:03 | 44.58405 | 11.36828 | 4104 ft | 198 kts | 30° |
| 2026-05-01 14:03 | 44.59654 | 11.37805 | 4505 ft | 214 kts | 31° |
| 2026-05-01 14:04 | 44.60978 | 11.38861 | 5193 ft | 218 kts | 31° |
| 2026-05-01 14:04 | 44.62272 | 11.39899 | 5973 ft | 218 kts | 32° |
| 2026-05-01 14:04 | 44.63593 | 11.40967 | 6753 ft | 219 kts | 32° |
| 2026-05-01 14:04 | 44.64458 | 11.41668 | 7279 ft | 219 kts | 32° |
| 2026-05-01 14:05 | 44.66169 | 11.43238 | 8096 ft | 230 kts | 38° |
| 2026-05-01 14:05 | 44.67459 | 11.44726 | 8515 ft | 247 kts | 43° |
| 2026-05-01 14:05 | 44.68301 | 11.45866 | 8915 ft | 254 kts | 44° |
| 2026-05-01 14:05 | 44.70031 | 11.48104 | 9974 ft | 256 kts | 40° |
| 2026-05-01 14:06 | 44.71385 | 11.49718 | 10753 ft | 258 kts | 40° |
| 2026-05-01 14:06 | 44.72794 | 11.51390 | 11214 ft | 272 kts | 40° |
| 2026-05-01 14:06 | 44.74278 | 11.53143 | 11593 ft | 287 kts | 40° |
| 2026-05-01 14:06 | 44.75835 | 11.54981 | 12135 ft | 296 kts | 40° |
| 2026-05-01 14:07 | 44.77422 | 11.56853 | 12816 ft | 299 kts | 40° |
| 2026-05-01 14:07 | 44.79028 | 11.58745 | 13491 ft | 302 kts | 40° |
| 2026-05-01 14:07 | 44.80735 | 11.60467 | 14152 ft | 306 kts | 29° |
| 2026-05-01 14:08 | 44.84174 | 11.61798 | 15211 ft | 317 kts | 8° |
| 2026-05-01 14:08 | 44.87128 | 11.62045 | 16027 ft | 321 kts | 7° |
| 2026-05-01 14:08 | 44.89360 | 11.62205 | 16638 ft | 323 kts | 6° |
| 2026-05-01 14:08 | 44.91624 | 11.62369 | 17229 ft | 325 kts | 6° |
| 2026-05-01 14:09 | 44.93881 | 11.62535 | 17755 ft | 329 kts | 6° |
| 2026-05-01 14:09 | 44.96196 | 11.62704 | 18300 ft | 332 kts | 6° |
| 2026-05-01 14:09 | 44.98511 | 11.62873 | 18859 ft | 334 kts | 6° |
| 2026-05-01 14:09 | 45.00837 | 11.63043 | 19409 ft | 336 kts | 6° |
| 2026-05-01 14:10 | 45.03179 | 11.63217 | 19925 ft | 338 kts | 6° |
| 2026-05-01 14:10 | 45.05509 | 11.63392 | 20414 ft | 340 kts | 6° |
| 2026-05-01 14:10 | 45.07108 | 11.63510 | 20750 ft | 342 kts | 6° |
| 2026-05-01 14:10 | 45.10274 | 11.63745 | 21404 ft | 345 kts | 6° |
| 2026-05-01 14:11 | 45.12699 | 11.63923 | 21912 ft | 347 kts | 6° |
| 2026-05-01 14:11 | 45.17548 | 11.64278 | 22835 ft | 352 kts | 6° |
| 2026-05-01 14:11 | 45.20014 | 11.64451 | 23298 ft | 354 kts | 6° |
| 2026-05-01 14:12 | 45.22472 | 11.64625 | 23759 ft | 356 kts | 6° |
| 2026-05-01 14:12 | 45.24957 | 11.64803 | 24187 ft | 359 kts | 6° |
| 2026-05-01 14:12 | 45.27464 | 11.64983 | 24628 ft | 361 kts | 6° |
| 2026-05-01 14:12 | 45.29985 | 11.65166 | 25049 ft | 363 kts | 6° |
| 2026-05-01 14:13 | 45.31688 | 11.65289 | 25323 ft | 365 kts | 6° |
| 2026-05-01 14:13 | 45.34248 | 11.65474 | 25742 ft | 367 kts | 6° |
| 2026-05-01 14:13 | 45.37658 | 11.65720 | 26240 ft | 370 kts | 6° |
| 2026-05-01 14:13 | 45.40239 | 11.65908 | 26633 ft | 372 kts | 6° |
| 2026-05-01 14:14 | 45.42823 | 11.66094 | 27014 ft | 373 kts | 6° |
| 2026-05-01 14:14 | 45.45427 | 11.66284 | 27338 ft | 376 kts | 5° |
| 2026-05-01 14:14 | 45.48050 | 11.66475 | 27658 ft | 379 kts | 5° |
| 2026-05-01 14:14 | 45.50698 | 11.66669 | 27999 ft | 381 kts | 5° |
| 2026-05-01 14:15 | 45.53329 | 11.66861 | 28331 ft | 383 kts | 5° |
| 2026-05-01 14:15 | 45.56021 | 11.67057 | 28662 ft | 384 kts | 5° |
| 2026-05-01 14:15 | 45.57796 | 11.67185 | 28870 ft | 386 kts | 5° |
| 2026-05-01 14:15 | 45.61379 | 11.67216 | 29272 ft | 390 kts | 359° |
| 2026-05-01 14:16 | 45.64062 | 11.66787 | 29546 ft | 394 kts | 354° |
| 2026-05-01 14:16 | 45.66779 | 11.65948 | 29817 ft | 398 kts | 348° |
| 2026-05-01 14:16 | 45.69424 | 11.64754 | 30081 ft | 402 kts | 345° |
| 2026-05-01 14:16 | 45.72065 | 11.63438 | 30349 ft | 404 kts | 344° |
| 2026-05-01 14:17 | 45.74715 | 11.62095 | 30603 ft | 406 kts | 344° |
| 2026-05-01 14:17 | 45.77398 | 11.60734 | 30833 ft | 408 kts | 344° |
| 2026-05-01 14:17 | 45.80062 | 11.59382 | 31064 ft | 410 kts | 344° |
| 2026-05-01 14:17 | 45.82755 | 11.58013 | 31293 ft | 411 kts | 344° |
| 2026-05-01 14:18 | 45.84538 | 11.57107 | 31437 ft | 413 kts | 344° |
| 2026-05-01 14:18 | 45.88177 | 11.55258 | 31712 ft | 415 kts | 344° |
| 2026-05-01 14:18 | 45.90883 | 11.53882 | 31913 ft | 417 kts | 344° |
| 2026-05-01 14:18 | 45.92711 | 11.52952 | 32059 ft | 418 kts | 344° |
| 2026-05-01 14:19 | 45.96357 | 11.51095 | 32379 ft | 418 kts | 344° |
| 2026-05-01 14:19 | 45.99113 | 11.49688 | 32635 ft | 418 kts | 344° |
| 2026-05-01 14:19 | 46.01846 | 11.48292 | 32879 ft | 418 kts | 344° |
| 2026-05-01 14:19 | 46.04602 | 11.46885 | 33145 ft | 417 kts | 344° |
| 2026-05-01 14:20 | 46.07305 | 11.45501 | 33393 ft | 417 kts | 344° |
| 2026-05-01 14:20 | 46.11852 | 11.43173 | 33800 ft | 417 kts | 345° |
| 2026-05-01 14:20 | 46.15498 | 11.41305 | 34114 ft | 417 kts | 344° |
| 2026-05-01 14:21 | 46.18207 | 11.39916 | 34359 ft | 416 kts | 344° |
| 2026-05-01 14:21 | 46.20927 | 11.38518 | 34599 ft | 416 kts | 344° |
| 2026-05-01 14:21 | 46.23660 | 11.37112 | 34782 ft | 417 kts | 344° |
| 2026-05-01 14:22 | 46.29143 | 11.34355 | 35164 ft | 418 kts | 344° |
| 2026-05-01 14:22 | 46.31887 | 11.33030 | 35319 ft | 419 kts | 345° |
| 2026-05-01 14:22 | 46.34670 | 11.31687 | 35493 ft | 419 kts | 344° |
| 2026-05-01 14:22 | 46.37416 | 11.30358 | 35658 ft | 420 kts | 344° |
| 2026-05-01 14:23 | 46.39275 | 11.29458 | 35765 ft | 420 kts | 344° |
| 2026-05-01 14:23 | 46.42961 | 11.27669 | 35953 ft | 421 kts | 344° |
| 2026-05-01 14:23 | 46.45745 | 11.26314 | 36085 ft | 421 kts | 344° |
| 2026-05-01 14:23 | 46.48504 | 11.24970 | 36214 ft | 422 kts | 344° |
| 2026-05-01 14:24 | 46.54094 | 11.22241 | 36281 ft | 423 kts | 344° |
| 2026-05-01 14:24 | 46.59647 | 11.19523 | 36318 ft | 423 kts | 344° |
| 2026-05-01 14:25 | 46.65237 | 11.16781 | 36344 ft | 423 kts | 343° |
| 2026-05-01 14:25 | 46.70838 | 11.14028 | 36352 ft | 424 kts | 344° |
| 2026-05-01 14:26 | 46.79188 | 11.09915 | 36353 ft | 424 kts | 343° |
| 2026-05-01 14:27 | 46.84752 | 11.07142 | 36359 ft | 424 kts | 342° |
| 2026-05-01 14:27 | 46.90235 | 11.03809 | 36373 ft | 426 kts | 339° |
| 2026-05-01 14:28 | 46.98336 | 10.98493 | 36388 ft | 427 kts | 338° |
| 2026-05-01 14:28 | 47.03752 | 10.94932 | 36392 ft | 427 kts | 339° |
| 2026-05-01 14:29 | 47.09155 | 10.91378 | 36394 ft | 427 kts | 338° |
| 2026-05-01 14:30 | 47.19997 | 10.84224 | 36374 ft | 427 kts | 338° |
| 2026-05-01 14:31 | 47.28095 | 10.78860 | 36354 ft | 427 kts | 338° |
| 2026-05-01 14:31 | 47.33512 | 10.75261 | 36335 ft | 428 kts | 338° |
| 2026-05-01 14:32 | 47.38836 | 10.71333 | 36327 ft | 429 kts | 333° |
| 2026-05-01 14:32 | 47.43897 | 10.66579 | 36321 ft | 432 kts | 328° |
| 2026-05-01 14:33 | 47.48012 | 10.62370 | 36326 ft | 432 kts | 328° |
| 2026-05-01 14:33 | 47.53753 | 10.56469 | 36318 ft | 433 kts | 328° |
| 2026-05-01 14:34 | 47.58687 | 10.51391 | 36304 ft | 433 kts | 328° |
| 2026-05-01 14:34 | 47.63654 | 10.46274 | 36299 ft | 433 kts | 328° |
| 2026-05-01 14:35 | 47.68586 | 10.41181 | 36293 ft | 432 kts | 327° |
| 2026-05-01 14:35 | 47.72696 | 10.36927 | 36282 ft | 433 kts | 327° |
| 2026-05-01 14:36 | 47.78248 | 10.30537 | 36279 ft | 434 kts | 322° |
| 2026-05-01 14:36 | 47.82890 | 10.24870 | 36279 ft | 435 kts | 322° |
| 2026-05-01 14:37 | 47.87585 | 10.19127 | 36281 ft | 436 kts | 322° |
| 2026-05-01 14:37 | 47.92260 | 10.13401 | 36283 ft | 435 kts | 322° |
| 2026-05-01 14:38 | 47.96147 | 10.08632 | 36285 ft | 435 kts | 322° |
| 2026-05-01 14:38 | 48.01558 | 10.01979 | 36285 ft | 435 kts | 322° |
| 2026-05-01 14:39 | 48.06247 | 9.96200 | 36281 ft | 435 kts | 322° |
| 2026-05-01 14:39 | 48.10909 | 9.90440 | 36284 ft | 436 kts | 322° |
| 2026-05-01 14:40 | 48.15572 | 9.84663 | 36282 ft | 437 kts | 322° |
| 2026-05-01 14:40 | 48.19487 | 9.79805 | 36278 ft | 438 kts | 322° |
| 2026-05-01 14:41 | 48.24938 | 9.73021 | 36267 ft | 437 kts | 322° |
| 2026-05-01 14:41 | 48.29584 | 9.67226 | 36258 ft | 437 kts | 322° |
| 2026-05-01 14:42 | 48.34238 | 9.61402 | 36253 ft | 437 kts | 321° |
| 2026-05-01 14:42 | 48.38867 | 9.55495 | 36254 ft | 438 kts | 321° |
| 2026-05-01 14:43 | 48.42735 | 9.50531 | 36256 ft | 438 kts | 321° |
| 2026-05-01 14:43 | 48.48138 | 9.43591 | 36255 ft | 438 kts | 321° |
| 2026-05-01 14:44 | 48.52773 | 9.37627 | 36255 ft | 437 kts | 321° |
| 2026-05-01 14:44 | 48.60314 | 9.30061 | 36258 ft | 436 kts | 338° |
| 2026-05-01 14:45 | 48.68108 | 9.27262 | 36261 ft | 435 kts | 356° |
| 2026-05-01 14:46 | 48.75172 | 9.27807 | 36259 ft | 435 kts | 5° |
| 2026-05-01 14:46 | 48.84167 | 9.29242 | 36253 ft | 435 kts | 5° |
| 2026-05-01 14:47 | 48.90195 | 9.30186 | 36250 ft | 435 kts | 5° |
| 2026-05-01 14:48 | 48.98208 | 9.31427 | 36253 ft | 436 kts | 5° |
| 2026-05-01 14:48 | 49.08252 | 9.32987 | 36255 ft | 436 kts | 5° |
| 2026-05-01 14:49 | 49.20319 | 9.34871 | 36253 ft | 436 kts | 5° |
| 2026-05-01 14:50 | 49.32391 | 9.36760 | 36255 ft | 437 kts | 5° |
| 2026-05-01 14:51 | 49.41460 | 9.38187 | 36260 ft | 437 kts | 5° |
| 2026-05-01 14:52 | 49.50559 | 9.39628 | 36264 ft | 437 kts | 5° |
| 2026-05-01 14:53 | 49.58625 | 9.40912 | 36263 ft | 436 kts | 5° |
| 2026-05-01 14:53 | 49.65671 | 9.42028 | 36266 ft | 437 kts | 5° |
| 2026-05-01 14:54 | 49.71703 | 9.42983 | 36264 ft | 438 kts | 5° |
| 2026-05-01 14:54 | 49.77777 | 9.43952 | 36268 ft | 438 kts | 5° |
| 2026-05-01 14:55 | 49.83815 | 9.44921 | 36269 ft | 438 kts | 5° |
| 2026-05-01 14:55 | 49.88887 | 9.45739 | 36272 ft | 437 kts | 5° |
| 2026-05-01 14:56 | 49.95916 | 9.46874 | 36273 ft | 438 kts | 5° |
| 2026-05-01 14:56 | 50.02015 | 9.46949 | 36275 ft | 438 kts | 352° |
| 2026-05-01 14:57 | 50.07919 | 9.44696 | 36280 ft | 439 kts | 338° |
| 2026-05-01 14:57 | 50.13259 | 9.40272 | 36277 ft | 439 kts | 324° |
| 2026-05-01 14:57 | 50.15686 | 9.37370 | 36277 ft | 439 kts | 321° |
| 2026-05-01 14:58 | 50.25001 | 9.25468 | 36273 ft | 440 kts | 321° |
| 2026-05-01 14:59 | 50.29734 | 9.19431 | 36271 ft | 440 kts | 321° |
| 2026-05-01 14:59 | 50.34468 | 9.13384 | 36273 ft | 440 kts | 321° |
| 2026-05-01 15:00 | 50.41523 | 9.04349 | 36228 ft | 437 kts | 321° |
| 2026-05-01 15:00 | 50.43862 | 9.01347 | 35700 ft | 436 kts | 321° |
| 2026-05-01 15:01 | 50.46249 | 8.98280 | 34569 ft | 444 kts | 321° |
| 2026-05-01 15:01 | 50.48616 | 8.95233 | 33508 ft | 452 kts | 321° |
| 2026-05-01 15:01 | 50.51077 | 8.92060 | 32531 ft | 457 kts | 321° |
| 2026-05-01 15:01 | 50.53552 | 8.88932 | 31613 ft | 460 kts | 323° |
| 2026-05-01 15:02 | 50.56057 | 8.85899 | 30921 ft | 457 kts | 323° |
| 2026-05-01 15:02 | 50.56896 | 8.84892 | 30705 ft | 455 kts | 323° |
| 2026-05-01 15:02 | 50.61053 | 8.79918 | 29733 ft | 446 kts | 323° |
| 2026-05-01 15:02 | 50.63493 | 8.76993 | 29224 ft | 439 kts | 323° |
| 2026-05-01 15:03 | 50.65902 | 8.74099 | 28725 ft | 432 kts | 323° |
| 2026-05-01 15:03 | 50.68233 | 8.71294 | 28252 ft | 426 kts | 323° |
| 2026-05-01 15:03 | 50.70591 | 8.68449 | 27772 ft | 420 kts | 323° |
| 2026-05-01 15:03 | 50.72868 | 8.65699 | 27304 ft | 414 kts | 323° |
| 2026-05-01 15:04 | 50.75151 | 8.62939 | 26838 ft | 409 kts | 323° |
| 2026-05-01 15:04 | 50.77401 | 8.60213 | 26382 ft | 404 kts | 323° |
| 2026-05-01 15:04 | 50.79608 | 8.57538 | 26046 ft | 403 kts | 323° |
| 2026-05-01 15:04 | 50.81801 | 8.54758 | 25777 ft | 405 kts | 318° |
| 2026-05-01 15:05 | 50.83784 | 8.51636 | 25517 ft | 404 kts | 315° |
| 2026-05-01 15:05 | 50.85731 | 8.48369 | 25252 ft | 403 kts | 314° |
| 2026-05-01 15:05 | 50.87628 | 8.45196 | 24990 ft | 401 kts | 315° |
| 2026-05-01 15:05 | 50.89579 | 8.41980 | 24714 ft | 400 kts | 315° |
| 2026-05-01 15:06 | 50.91497 | 8.38851 | 24443 ft | 398 kts | 315° |
| 2026-05-01 15:06 | 50.93450 | 8.35684 | 24296 ft | 397 kts | 315° |
| 2026-05-01 15:06 | 50.95360 | 8.32590 | 24192 ft | 393 kts | 314° |
| 2026-05-01 15:06 | 50.97260 | 8.29511 | 23685 ft | 390 kts | 314° |
| 2026-05-01 15:07 | 50.99145 | 8.26453 | 23034 ft | 390 kts | 314° |
| 2026-05-01 15:07 | 51.01020 | 8.23332 | 22438 ft | 388 kts | 314° |
| 2026-05-01 15:07 | 51.02848 | 8.20240 | 21900 ft | 386 kts | 314° |
| 2026-05-01 15:07 | 51.04689 | 8.17122 | 21357 ft | 383 kts | 314° |
| 2026-05-01 15:08 | 51.06504 | 8.14049 | 20819 ft | 381 kts | 314° |
| 2026-05-01 15:08 | 51.08295 | 8.11021 | 20293 ft | 379 kts | 314° |
| 2026-05-01 15:08 | 51.10106 | 8.07957 | 19762 ft | 377 kts | 313° |
| 2026-05-01 15:08 | 51.11887 | 8.04941 | 19234 ft | 376 kts | 313° |
| 2026-05-01 15:09 | 51.13656 | 8.01941 | 18719 ft | 374 kts | 313° |
| 2026-05-01 15:09 | 51.15449 | 7.98896 | 18202 ft | 372 kts | 313° |
| 2026-05-01 15:09 | 51.17208 | 7.95906 | 17708 ft | 371 kts | 313° |
| 2026-05-01 15:09 | 51.18863 | 7.92803 | 17214 ft | 368 kts | 303° |
| 2026-05-01 15:10 | 51.20113 | 7.89274 | 16737 ft | 366 kts | 295° |
| 2026-05-01 15:10 | 51.22086 | 7.81855 | 15812 ft | 361 kts | 292° |
| 2026-05-01 15:10 | 51.23032 | 7.78198 | 15399 ft | 355 kts | 292° |
| 2026-05-01 15:11 | 51.23972 | 7.74618 | 14911 ft | 345 kts | 292° |
| 2026-05-01 15:11 | 51.25788 | 7.67810 | 13927 ft | 326 kts | 294° |
| 2026-05-01 15:11 | 51.26931 | 7.64772 | 13392 ft | 320 kts | 309° |
| 2026-05-01 15:12 | 51.28405 | 7.62144 | 12822 ft | 314 kts | 314° |
| 2026-05-01 15:12 | 51.31376 | 7.57131 | 11548 ft | 310 kts | 313° |
| 2026-05-01 15:12 | 51.32822 | 7.54596 | 10914 ft | 308 kts | 311° |
| 2026-05-01 15:13 | 51.37016 | 7.47000 | 9068 ft | 301 kts | 310° |
| 2026-05-01 15:14 | 51.39734 | 7.42009 | 7892 ft | 294 kts | 310° |
| 2026-05-01 15:14 | 51.41050 | 7.39586 | 7477 ft | 286 kts | 310° |
| 2026-05-01 15:14 | 51.43622 | 7.34842 | 6798 ft | 281 kts | 309° |
| 2026-05-01 15:15 | 51.46180 | 7.30113 | 6146 ft | 278 kts | 309° |
| 2026-05-01 15:15 | 51.48664 | 7.25441 | 5511 ft | 275 kts | 302° |
| 2026-05-01 15:16 | 51.49034 | 7.19778 | 4797 ft | 259 kts | 240° |
| 2026-05-01 15:16 | 51.46946 | 7.15209 | 4267 ft | 248 kts | 228° |
| 2026-05-01 15:17 | 51.44875 | 7.10921 | 3784 ft | 241 kts | 229° |
| 2026-05-01 15:18 | 51.41963 | 7.04756 | 3372 ft | 215 kts | 229° |
| 2026-05-01 15:18 | 51.41117 | 7.02863 | 3341 ft | 201 kts | 230° |
| 2026-05-01 15:19 | 51.38906 | 6.98078 | 3102 ft | 166 kts | 227° |
| 2026-05-01 15:19 | 51.37500 | 6.95156 | 2667 ft | 166 kts | 226° |
| 2026-05-01 15:19 | 51.36797 | 6.93691 | 2450 ft | 166 kts | 226° |
| 2026-05-01 15:20 | 51.35389 | 6.90752 | 2014 ft | 165 kts | 226° |
| 2026-05-01 15:20 | 51.34695 | 6.89303 | 1804 ft | 166 kts | 227° |
| 2026-05-01 15:20 | 51.34003 | 6.87850 | 1612 ft | 159 kts | 227° |
| 2026-05-01 15:21 | 51.33357 | 6.86492 | 1390 ft | 147 kts | 226° |
| 2026-05-01 15:21 | 51.32744 | 6.85210 | 1188 ft | 146 kts | 226° |
| 2026-05-01 15:21 | 51.32121 | 6.83912 | 1023 ft | 144 kts | 227° |
| 2026-05-01 15:21 | 51.31511 | 6.82635 | 819 ft | 146 kts | 227° |
| 2026-05-01 15:22 | 51.30259 | 6.80016 | 451 ft | 147 kts | 226° |
| 2026-05-01 15:22 | 51.30048 | 6.79588 | 402 ft | 145 kts | 227° |